Time;durP1;ratioP1;P1;durP2;ratioP2;P2;SDS_P1;SDS_P2;PMS_P1;PMS_P2;Temp;Humidity;BMP_temperature;BMP_pressure;BME280_temperature;BME280_humidity;BME280_pressure;Samples;Min_cycle;Max_cycle;Signal;HPM_P1;HPM_P2
2023/01/18 00:01:49;;;;;;;4.20;2.40;;;;;;;;;;5031456;28;20047;-74
2023/01/18 00:04:15;;;;;;;11.07;2.75;;;;;;;;;;5030655;28;20099;-73
2023/01/18 00:06:41;;;;;;;5.20;2.10;;;;;;;;;;5015034;28;20076;-73
2023/01/18 00:09:07;;;;;;;11.13;2.50;;;;;;;;;;5015067;28;20107;-73
2023/01/18 00:11:33;;;;;;;6.10;2.50;;;;;;;;;;5015279;28;20485;-73
2023/01/18 00:14:01;;;;;;;3.97;2.08;;;;;;;;;;5031816;28;20029;-73
2023/01/18 00:16:29;;;;;;;4.20;2.58;;;;;;;;;;5015648;28;20099;-73
2023/01/18 00:19:01;;;;;;;8.23;2.92;;;;;;;;;;5015182;28;20064;-73
2023/01/18 00:21:27;;;;;;;7.03;2.70;;;;;;;;;;5015098;28;20485;-73
2023/01/18 00:23:56;;;;;;;7.22;2.55;;;;;;;;;;5031715;28;20045;-73
2023/01/18 00:26:22;;;;;;;5.88;2.30;;;;;;;;;;5031804;28;20071;-73
2023/01/18 00:28:48;;;;;;;4.88;2.55;;;;;;;;;;5031350;28;20052;-73
2023/01/18 00:31:18;;;;;;;11.00;2.55;;;;;;;;;;5031675;28;20030;-73
2023/01/18 00:33:45;;;;;;;4.30;2.53;;;1.30;99.90;;;;;;5015186;28;20107;-73
2023/01/18 00:36:12;;;;;;;5.57;2.17;;;;;;;;;;5031362;28;20041;-73
2023/01/18 00:38:38;;;;;;;7.72;2.60;;;;;;;;;;5031659;28;20038;-73
2023/01/18 00:41:04;;;;;;;7.03;2.65;;;;;;;;;;5014854;28;20045;-73
2023/01/18 00:43:39;;;;;;;4.68;2.30;;;;;;;;;;5014858;28;20045;-73
2023/01/18 00:46:13;;;;;;;7.65;2.65;;;;;;;;;;5032494;28;20091;-74
2023/01/18 00:48:40;;;;;;;3.83;1.88;;;1.10;99.90;;;;;;5034586;28;20426;-74
2023/01/18 00:51:07;;;;;;;6.03;2.75;;;;;;;;;;5034553;28;20511;-74
2023/01/18 00:53:33;;;;;;;6.30;2.42;;;;;;;;;;5034709;28;20041;-74
2023/01/18 00:55:59;;;;;;;3.40;2.25;;;;;;;;;;5034695;28;20041;-74
2023/01/18 00:58:27;;;;;;;6.90;2.20;;;;;;;;;;5001946;28;20051;-74
2023/01/18 01:00:53;;;;;;;7.93;2.50;;;;;;;;;;5018560;28;20085;-73
2023/01/18 01:03:20;;;;;;;7.10;2.53;;;;;;;;;;5034825;28;20041;-72
2023/01/18 01:08:31;;;;;;;7.35;2.13;;;;;;;;;;5034589;28;20041;-73
2023/01/18 01:11:08;;;;;;;5.25;2.10;;;;;;;;;;5017883;28;20071;-73
2023/01/18 01:27:17;;;;;;;10.25;3.33;;;;;;;;;;5037064;28;20045;-73
2023/01/18 01:29:44;;;;;;;5.80;2.70;;;;;;;;;;5033951;28;20041;-73
2023/01/18 01:32:10;;;;;;;7.65;2.50;;;;;;;;;;5018181;28;20500;-73
2023/01/18 01:34:36;;;;;;;7.35;2.38;;;;;;;;;;5034009;28;20081;-73
2023/01/18 01:37:03;;;;;;;4.97;3.05;;;;;;;;;;5033973;28;20495;-74
2023/01/18 01:39:29;;;;;;;5.15;2.35;;;;;;;;;;5033901;28;20045;-73
2023/01/18 01:41:55;;;;;;;8.63;2.40;;;;;;;;;;5034171;28;20132;-73
2023/01/18 01:44:26;;;;;;;9.95;3.05;;;;;;;;;;5033743;28;20037;-73
2023/01/18 01:47:14;;;;;;;9.90;2.70;;;1.00;99.90;;;;;;5034043;28;20048;-73
2023/01/18 01:49:47;;;;;;;4.55;2.30;;;;;;;;;;5033391;28;20050;-73
2023/01/18 01:52:19;;;;;;;7.20;2.53;;;0.90;99.90;;;;;;5033467;28;20040;-73
2023/01/18 01:55:04;;;;;;;7.93;2.30;;;;;;;;;;5033828;28;20046;-73
2023/01/18 01:57:33;;;;;;;7.10;2.80;;;;;;;;;;5032503;28;20042;-73
2023/01/18 02:00:05;;;;;;;9.80;2.50;;;;;;;;;;5033461;28;20041;-73
2023/01/18 02:02:33;;;;;;;4.30;2.22;;;1.20;99.90;;;;;;5033667;28;20043;-73
2023/01/18 02:05:00;;;;;;;7.25;2.60;;;;;;;;;;5017228;28;20378;-73
2023/01/18 02:07:27;;;;;;;10.00;2.55;;;;;;;;;;5033578;28;20135;-73
2023/01/18 02:09:54;;;;;;;6.45;2.33;;;;;;;;;;5033367;28;20374;-73
2023/01/18 02:12:20;;;;;;;3.67;2.22;;;;;;;;;;5033666;28;20072;-73
2023/01/18 02:14:46;;;;;;;8.73;2.45;;;;;;;;;;5033292;28;20445;-73
2023/01/18 02:17:18;;;;;;;7.45;2.88;;;;;;;;;;5033358;28;20042;-73
2023/01/18 02:19:58;;;;;;;6.60;2.42;;;;;;;;;;5023362;28;20048;-73
2023/01/18 02:22:53;;;;;;;11.57;3.10;;;1.00;99.90;;;;;;5013401;28;20046;-73
2023/01/18 02:25:22;;;;;;;4.88;2.38;;;;;;;;;;5013544;28;20051;-73
2023/01/18 02:28:09;;;;;;;6.93;2.30;;;;;;;;;;5031455;28;20045;-73
2023/01/18 02:30:39;;;;;;;5.10;2.28;;;;;;;;;;5033156;28;20092;-74
2023/01/18 02:33:08;;;;;;;5.45;2.53;;;;;;;;;;5032949;28;20038;-74
2023/01/18 02:35:34;;;;;;;7.22;2.42;;;;;;;;;;5032876;28;20041;-73
2023/01/18 02:38:09;;;;;;;9.13;2.78;;;;;;;;;;5032951;28;20052;-73
2023/01/18 02:40:38;;;;;;;9.57;2.75;;;;;;;;;;5032768;28;20042;-74
2023/01/18 02:48:37;;;;;;;4.80;2.53;;;;;;;;;;5032316;28;20049;-74
2023/01/18 02:51:04;;;;;;;9.77;3.08;;;;;;;;;;5032341;28;20061;-73
2023/01/18 02:53:31;;;;;;;6.35;2.78;;;;;;;;;;5032520;28;20033;-73
2023/01/18 02:56:05;;;;;;;4.50;2.75;;;;;;;;;;5016018;28;20405;-74
2023/01/18 02:58:34;;;;;;;3.97;3.00;;;;;;;;;;5032447;28;20037;-74
2023/01/18 03:01:05;;;;;;;4.43;2.90;;;;;;;;;;5015998;28;20052;-74
2023/01/18 03:03:31;;;;;;;7.88;3.17;;;;;;;;;;5015761;28;20128;-74
2023/01/18 03:05:59;;;;;;;9.68;3.30;;;;;;;;;;5032276;28;20037;-74
2023/01/18 03:08:31;;;;;;;6.50;3.15;;;;;;;;;;5032057;28;20045;-74
2023/01/18 03:11:04;;;;;;;8.00;3.42;;;1.00;99.90;;;;;;5032266;28;20563;-74
2023/01/18 03:13:56;;;;;;;6.47;3.25;;;1.00;99.90;;;;;;5049486;28;20041;-74
2023/01/18 03:16:58;;;;;;;5.53;3.03;;;1.20;99.90;;;;;;5036633;28;20139;-74
2023/01/18 03:23:36;;;;;;;5.22;2.75;;;;;;;;;;5052168;28;20562;-77
2023/01/18 03:25:10;;;;;;;8.88;3.67;;;1.20;99.90;;;;;;5051975;28;20052;-78
2023/01/18 03:35:52;;;;;;;9.00;3.55;;;;;;;;;;5038242;28;20132;-77
2023/01/18 03:38:19;;;;;;;15.57;4.07;;;;;;;;;;5051951;28;20124;-78
2023/01/18 03:40:45;;;;;;;9.82;3.17;;;;;;;;;;5035547;28;20413;-77
2023/01/18 03:43:13;;;;;;;9.10;3.60;;;;;;;;;;5051816;28;20037;-79
2023/01/18 03:45:39;;;;;;;7.80;3.67;;;;;;;;;;5051973;28;20102;-78
2023/01/18 03:48:07;;;;;;;8.25;3.75;;;;;;;;;;5051729;28;20041;-78
2023/01/18 03:50:42;;;;;;;13.88;3.92;;;;;;;;;;5051575;28;20057;-72
2023/01/18 03:53:12;;;;;;;7.45;4.45;;;;;;;;;;5051907;28;20130;-73
2023/01/18 03:55:47;;;;;;;8.70;3.97;;;1.20;99.90;;;;;;5051531;28;20498;-73
2023/01/18 03:58:15;;;;;;;7.53;4.13;;;;;;;;;;5034264;28;20045;-73
2023/01/18 04:00:41;;;;;;;12.95;4.82;;;;;;;;;;5033332;28;20045;-73
2023/01/18 04:03:07;;;;;;;10.32;4.03;;;;;;;;;;5049931;28;20130;-73
2023/01/18 04:05:34;;;;;;;8.52;4.70;;;;;;;;;;5034280;28;20493;-73
2023/01/18 04:08:00;;;;;;;11.48;5.18;;;;;;;;;;5033910;28;20033;-73
2023/01/18 04:10:26;;;;;;;13.75;5.93;;;;;;;;;;5051710;28;20094;-73
2023/01/18 04:12:52;;;;;;;15.43;5.45;;;;;;;;;;5051925;28;20037;-74
2023/01/18 04:15:19;;;;;;;9.43;5.03;;;;;;;;;;5034927;28;20043;-73
2023/01/18 04:17:48;;;;;;;19.30;5.90;;;;;;;;;;5034995;28;20079;-73
2023/01/18 04:20:14;;;;;;;10.73;5.35;;;;;;;;;;5021326;28;20121;-78
2023/01/18 04:22:40;;;;;;;10.90;5.70;;;;;;;;;;5035128;28;20087;-78
2023/01/18 04:25:07;;;;;;;11.80;6.45;;;;;;;;;;5035414;28;20073;-78
2023/01/18 04:27:33;;;;;;;17.63;6.00;;;;;;;;;;5035309;28;20060;-78
2023/01/18 04:29:59;;;;;;;15.32;6.47;;;;;;;;;;5035277;28;20578;-78
2023/01/18 04:32:27;;;;;;;14.93;5.20;;;;;;;;;;5019048;28;20045;-78
2023/01/18 04:34:53;;;;;;;10.32;6.63;;;;;;;;;;5035622;28;20041;-78
2023/01/18 04:37:20;;;;;;;13.43;5.88;;;;;;;;;;5035218;28;20053;-78
2023/01/18 04:39:47;;;;;;;14.35;6.22;;;;;;;;;;5035426;28;20055;-78
2023/01/18 04:42:13;;;;;;;12.27;5.78;;;;;;;;;;5035096;28;20493;-78
2023/01/18 04:44:39;;;;;;;12.05;5.90;;;;;;;;;;5035058;28;20128;-78
2023/01/18 04:47:05;;;;;;;17.05;6.90;;;;;;;;;;5035011;28;20041;-78
2023/01/18 04:49:31;;;;;;;14.70;6.35;;;;;;;;;;5034635;28;20137;-78
2023/01/18 04:51:57;;;;;;;15.40;6.47;;;;;;;;;;5035063;28;20397;-78
2023/01/18 04:54:24;;;;;;;15.13;6.15;;;;;;;;;;5018360;28;20034;-78
2023/01/18 04:56:50;;;;;;;15.57;6.75;;;;;;;;;;5035126;28;20042;-78
2023/01/18 04:59:17;;;;;;;15.23;6.22;;;;;;;;;;5018763;28;20101;-78
2023/01/18 05:01:43;;;;;;;15.15;6.38;;;;;;;;;;5018725;28;20041;-78
2023/01/18 05:04:09;;;;;;;19.20;6.47;;;;;;;;;;5035027;28;20091;-78
2023/01/18 05:06:35;;;;;;;16.50;6.70;;;;;;;;;;5018301;28;20052;-78
2023/01/18 05:09:01;;;;;;;19.40;6.55;;;;;;;;;;5034488;28;20095;-78
2023/01/18 05:11:27;;;;;;;20.95;7.15;;;;;;;;;;5018075;28;20049;-78
2023/01/18 05:13:53;;;;;;;15.75;6.55;;;;;;;;;;5017991;28;20037;-78
2023/01/18 05:16:21;;;;;;;14.65;6.80;;;1.30;99.90;;;;;;5017953;28;20076;-78
2023/01/18 05:18:47;;;;;;;18.38;6.72;;;;;;;;;;5017806;28;20087;-78
2023/01/18 05:21:14;;;;;;;15.43;6.65;;;;;;;;;;5034706;28;20037;-78
2023/01/18 05:23:40;;;;;;;16.30;6.25;;;;;;;;;;5034349;28;20041;-78
2023/01/18 05:26:13;;;;;;;16.25;6.57;;;;;;;;;;5034193;28;20072;-78
2023/01/18 05:28:39;;;;;;;16.88;6.18;;;;;;;;;;5034603;28;20053;-77
2023/01/18 05:31:05;;;;;;;15.55;6.53;;;;;;;;;;5034054;28;20037;-78
2023/01/18 05:33:31;;;;;;;19.90;6.40;;;;;;;;;;5034045;28;20043;-72
2023/01/18 05:35:57;;;;;;;14.98;6.57;;;;;;;;;;5034346;28;20425;-78
2023/01/18 05:38:24;;;;;;;11.75;5.68;;;;;;;;;;5033876;28;20045;-78
2023/01/18 05:40:52;;;;;;;15.48;6.32;;;;;;;;;;5034267;28;20087;-76
2023/01/18 05:43:19;;;;;;;16.80;6.25;;;1.10;99.90;;;;;;5034100;28;20124;-77
2023/01/18 05:45:45;;;;;;;15.18;5.85;;;;;;;;;;5019408;28;20119;-78
2023/01/18 05:48:11;;;;;;;20.08;6.38;;;;;;;;;;5033705;28;20041;-78
2023/01/18 05:50:42;;;;;;;12.93;5.97;;;;;;;;;;5033424;28;20156;-78
2023/01/18 05:53:08;;;;;;;11.93;5.88;;;;;;;;;;5017325;28;20045;-77
2023/01/18 05:55:34;;;;;;;16.73;6.10;;;;;;;;;;5034058;28;20441;-78
2023/01/18 05:58:00;;;;;;;18.55;5.90;;;;;;;;;;5033822;28;20038;-78
2023/01/18 06:00:27;;;;;;;15.57;5.53;;;;;;;;;;5033743;28;20274;-78
2023/01/18 06:02:53;;;;;;;13.48;5.97;;;;;;;;;;5033455;28;20125;-78
2023/01/18 06:05:20;;;;;;;12.30;5.82;;;;;;;;;;5033965;28;20151;-78
2023/01/18 06:07:51;;;;;;;17.98;6.25;;;;;;;;;;5033541;28;20128;-78
2023/01/18 06:10:18;;;;;;;20.08;6.10;;;;;;;;;;5034236;28;20052;-78
2023/01/18 06:12:44;;;;;;;11.65;6.00;;;;;;;;;;5016842;28;20033;-78
2023/01/18 06:15:11;;;;;;;20.77;5.88;;;;;;;;;;5016998;28;20037;-78
2023/01/18 06:17:37;;;;;;;17.92;6.40;;;;;;;;;;5034459;28;20044;-78
2023/01/18 06:20:05;;;;;;;19.00;6.13;;;;;;;;;;5017019;28;20084;-78
2023/01/18 06:22:31;;;;;;;14.02;5.78;;;;;;;;;;5033283;28;20042;-78
2023/01/18 06:24:57;;;;;;;16.50;5.95;;;;;;;;;;5016743;28;20052;-78
2023/01/18 06:27:24;;;;;;;18.60;6.28;;;;;;;;;;5033007;28;20041;-78
2023/01/18 06:29:50;;;;;;;17.50;6.00;;;;;;;;;;5016666;28;20116;-78
2023/01/18 06:32:16;;;;;;;13.10;5.10;;;;;;;;;;5033141;28;20440;-78
2023/01/18 06:34:42;;;;;;;12.57;5.45;;;;;;;;;;5033382;28;20132;-78
2023/01/18 06:37:08;;;;;;;15.13;5.50;;;;;;;;;;5032987;28;20041;-78
2023/01/18 06:39:34;;;;;;;13.35;5.78;;;;;;;;;;5033292;28;20048;-77
2023/01/18 06:42:00;;;;;;;15.93;6.70;;;;;;;;;;5033020;28;20033;-75
2023/01/18 06:44:27;;;;;;;16.50;4.90;;;;;;;;;;5015664;28;20041;-75
2023/01/18 06:46:56;;;;;;;13.98;4.95;;;;;;;;;;5017215;28;20551;-77
2023/01/18 06:49:22;;;;;;;19.48;4.70;;;;;;;;;;5015451;28;20057;-77
2023/01/18 06:51:48;;;;;;;13.45;4.97;;;;;;;;;;5033181;28;20425;-75
2023/01/18 06:54:15;;;;;;;12.75;4.97;;;;;;;;;;5032917;28;20500;-77
2023/01/18 06:56:41;;;;;;;15.10;5.28;;;;;;;;;;5016352;28;20073;-78
2023/01/18 06:59:07;;;;;;;8.63;4.80;;;;;;;;;;5032648;28;20045;-78
2023/01/18 07:01:33;;;;;;;12.80;4.78;;;;;;;;;;5032507;28;20048;-78
2023/01/18 07:03:59;;;;;;;14.90;4.68;;;;;;;;;;5032250;28;20102;-78
2023/01/18 07:06:25;;;;;;;12.85;4.78;;;;;;;;;;5015968;28;20526;-78
2023/01/18 07:08:51;;;;;;;14.35;5.40;;;;;;;;;;5015591;28;20065;-78
2023/01/18 07:11:18;;;;;;;13.07;4.80;;;;;;;;;;5015935;28;20045;-78
2023/01/18 07:13:45;;;;;;;7.63;4.07;;;;;;;;;;5015158;28;20076;-78
2023/01/18 07:16:16;;;;;;;16.48;5.15;;;;;;;;;;5015178;28;20045;-77
2023/01/18 07:18:43;;;;;;;14.13;4.65;;;;;;;;;;5037965;28;20044;-79
2023/01/18 07:21:10;;;;;;;10.45;4.47;;;;;;;;;;5014547;28;20041;-78
2023/01/18 07:23:37;;;;;;;11.38;5.25;;;;;;;;;;5012536;28;20041;-79
2023/01/18 07:26:16;;;;;;;15.68;4.88;;;;;;;;;;5031597;28;20041;-78
2023/01/18 07:28:43;;;;;;;13.63;4.95;;;1.40;99.90;;;;;;5031968;28;20048;-78
2023/01/18 07:31:09;;;;;;;10.90;4.45;;;;;;;;;;5032105;28;20125;-78
2023/01/18 07:33:36;;;;;;;12.27;4.75;;;;;;;;;;5044487;28;20044;-78
2023/01/18 07:36:05;;;;;;;13.18;4.60;;;1.30;99.90;;;;;;5035497;28;20041;-78
2023/01/18 07:38:31;;;;;;;15.52;5.20;;;;;;;;;;5046432;28;20042;-78
2023/01/18 07:41:00;;;;;;;14.88;4.93;;;;;;;;;;5031754;28;20041;-78
2023/01/18 07:43:27;;;;;;;9.48;4.45;;;;;;;;;;5031736;28;20555;-78
2023/01/18 07:45:53;;;;;;;10.88;4.55;;;;;;;;;;5032145;28;20046;-78
2023/01/18 07:48:19;;;;;;;14.20;5.10;;;;;;;;;;5032080;28;20048;-77
2023/01/18 07:50:53;;;;;;;11.52;4.88;;;1.30;99.90;;;;;;5015137;28;20049;-75
2023/01/18 07:53:20;;;;;;;12.82;4.55;;;;;;;;;;5032047;28;20041;-74
2023/01/18 07:55:47;;;;;;;12.25;4.97;;;;;;;;;;5032303;28;20049;-75
2023/01/18 07:58:13;;;;;;;13.93;4.55;;;;;;;;;;5036073;28;20049;-74
2023/01/18 08:00:39;;;;;;;12.48;5.05;;;;;;;;;;5019188;28;20037;-75
2023/01/18 08:03:05;;;;;;;11.93;4.95;;;;;;;;;;5036496;28;20115;-74
2023/01/18 08:05:32;;;;;;;12.45;4.55;;;;;;;;;;5019716;28;20442;-75
2023/01/18 08:07:58;;;;;;;15.98;4.95;;;;;;;;;;5035697;28;20076;-74
2023/01/18 08:10:26;;;;;;;22.38;4.90;;;;;;;;;;5035897;28;20502;-71
2023/01/18 08:12:52;;;;;;;10.50;5.03;;;;;;;;;;5035492;28;20095;-71
2023/01/18 08:15:18;;;;;;;13.68;5.88;;;;;;;;;;5035510;28;20055;-73
2023/01/18 08:17:44;;;;;;;10.88;4.95;;;;;;;;;;5018903;28;20041;-73
2023/01/18 08:20:11;;;;;;;12.43;4.95;;;;;;;;;;5032412;28;20520;-73
2023/01/18 08:22:37;;;;;;;11.45;4.88;;;;;;;;;;5019124;28;20237;-73
2023/01/18 08:25:03;;;;;;;12.93;4.95;;;;;;;;;;5018653;28;20044;-70
2023/01/18 08:27:29;;;;;;;11.70;5.82;;;;;;;;;;5018732;28;20498;-73
2023/01/18 08:29:56;;;;;;;14.00;5.95;;;;;;;;;;5018208;28;20042;-72
2023/01/18 08:32:22;;;;;;;22.13;7.03;;;;;;;;;;5018067;28;20440;-73
2023/01/18 08:34:48;;;;;;;20.80;6.95;;;;;;;;;;5033301;28;20562;-73
2023/01/18 08:37:16;;;;;;;18.35;7.43;;;;;;;;;;5034483;28;20477;-73
2023/01/18 08:39:42;;;;;;;23.10;8.15;;;;;;;;;;5034645;28;20053;-73
2023/01/18 08:42:11;;;;;;;22.00;7.22;;;;;;;;;;5034664;28;20493;-73
2023/01/18 08:44:37;;;;;;;15.68;7.78;;;;;;;;;;5035365;28;20041;-73
2023/01/18 08:47:03;;;;;;;21.25;9.15;;;;;;;;;;5034788;28;20052;-73
2023/01/18 08:49:31;;;;;;;24.08;9.60;;;;;;;;;;5035174;28;20155;-73
2023/01/18 08:51:57;;;;;;;16.00;8.35;;;;;;;;;;5034817;28;20050;-73
2023/01/18 08:54:24;;;;;;;20.52;9.27;;;;;;;;;;5034643;28;20045;-73
2023/01/18 08:56:50;;;;;;;14.70;8.10;;;1.40;99.90;;;;;;5034816;28;20033;-73
2023/01/18 08:59:18;;;;;;;21.67;10.23;;;;;;;;;;5034847;28;20045;-73
2023/01/18 09:01:44;;;;;;;19.92;8.85;;;;;;;;;;5018177;28;20120;-73
2023/01/18 09:04:11;;;;;;;21.58;9.32;;;;;;;;;;5034992;28;20401;-71
2023/01/18 09:06:37;;;;;;;22.58;8.95;;;;;;;;;;5034311;28;20393;-71
2023/01/18 09:09:04;;;;;;;17.40;8.98;;;;;;;;;;5034502;28;20045;-71
2023/01/18 09:11:30;;;;;;;20.98;8.95;;;;;;;;;;5034558;28;20460;-71
2023/01/18 09:13:58;;;;;;;15.48;8.60;;;;;;;;;;5034731;28;20038;-71
2023/01/18 09:16:24;;;;;;;23.08;8.60;;;;;;;;;;5034308;28;20052;-71
2023/01/18 09:18:50;;;;;;;19.38;8.60;;;;;;;;;;5018192;28;20386;-71
2023/01/18 09:21:16;;;;;;;24.50;9.35;;;;;;;;;;5034161;28;20057;-71
2023/01/18 09:23:44;;;;;;;17.08;8.32;;;;;;;;;;5034352;28;20203;-71
2023/01/18 09:26:15;;;;;;;21.63;8.77;;;1.80;99.90;;;;;;5034217;28;20041;-71
2023/01/18 09:28:42;;;;;;;16.75;9.02;;;;;;;;;;5035330;28;20056;-71
2023/01/18 09:31:08;;;;;;;24.05;9.60;;;;;;;;;;5017839;28;20033;-71
2023/01/18 09:33:35;;;;;;;42.80;9.45;;;;;;;;;;5034063;28;20499;-71
2023/01/18 09:36:02;;;;;;;21.00;8.20;;;;;;;;;;5034011;28;20129;-71
2023/01/18 09:38:29;;;;;;;17.05;8.23;;;;;;;;;;5017772;28;20378;-71
2023/01/18 09:40:56;;;;;;;18.88;8.38;;;;;;;;;;5033845;28;20064;-71
2023/01/18 09:43:30;;;;;;;21.30;8.65;;;;;;;;;;5033791;28;20042;-71
2023/01/18 09:45:56;;;;;;;18.95;9.93;;;;;;;;;;5033739;28;20537;-71
2023/01/18 09:48:30;;;;;;;19.73;7.97;;;;;;;;;;5033976;28;20049;-78
2023/01/18 09:51:01;;;;;;;18.60;8.32;;;;;;;;;;5037056;28;20088;-80
2023/01/18 09:53:36;;;;;;;18.23;8.30;;;2.70;99.90;;;;;;5022943;28;20114;-72
2023/01/18 09:56:15;;;;;;;21.35;8.27;;;2.60;99.90;;;;;;5033700;28;20048;-73
2023/01/18 09:58:41;;;;;;;17.13;7.38;;;;;;;;;;5033454;28;20042;-72
2023/01/18 10:01:15;;;;;;;19.90;8.80;;;2.70;99.90;;;;;;5033873;28;20041;-73
2023/01/18 10:04:05;;;;;;;21.33;8.23;;;;;;;;;;5032192;28;20040;-73
2023/01/18 10:06:42;;;;;;;20.85;8.43;;;2.90;99.90;;;;;;5009545;28;20108;-73
2023/01/18 10:09:24;;;;;;;19.98;8.70;;;3.00;99.90;;;;;;5016811;28;20049;-73
2023/01/18 10:12:00;;;;;;;29.77;9.57;;;3.20;99.90;;;;;;5033176;28;20409;-73
2023/01/18 10:14:39;;;;;;;23.58;9.00;;;;;;;;;;5033665;28;20045;-73
2023/01/18 10:17:16;;;;;;;20.65;8.35;;;;;;;;;;5033442;28;20052;-72
2023/01/18 10:19:43;;;;;;;23.63;8.38;;;3.40;99.90;;;;;;5032301;28;20094;-72
2023/01/18 10:22:31;;;;;;;21.38;7.53;;;;;;;;;;5016938;28;20150;-82
2023/01/18 10:25:04;;;;;;;17.88;7.85;;;;;;;;;;5033232;28;20414;-72
2023/01/18 10:28:11;;;;;;;19.13;7.70;;;3.60;99.90;;;;;;5016433;28;20045;-72
2023/01/18 10:30:40;;;;;;;13.60;6.95;;;;;;;;;;5013336;28;20062;-71
2023/01/18 10:33:33;;;;;;;14.48;7.50;;;;;;;;;;5012542;28;20041;-72
2023/01/18 10:36:10;;;;;;;15.27;7.53;;;;;;;;;;5011710;28;20065;-72
2023/01/18 10:38:37;;;;;;;16.35;6.93;;;;;;;;;;5012982;28;20513;-72
2023/01/18 10:41:03;;;;;;;11.95;6.25;;;;;;;;;;5012678;28;20498;-72
2023/01/18 10:43:30;;;;;;;20.67;6.38;;;3.80;99.90;;;;;;5012137;28;20077;-73
2023/01/18 10:45:56;;;;;;;15.27;6.00;;;;;;;;;;5012939;28;20041;-72
2023/01/18 10:48:27;;;;;;;18.45;6.57;;;;;;;;;;5012832;28;20057;-73
2023/01/18 10:51:02;;;;;;;20.02;6.78;;;4.30;99.90;;;;;;5012644;28;20053;-72
2023/01/18 10:53:38;;;;;;;16.40;5.45;;;;;;;;;;5013018;28;20504;-72
2023/01/18 10:56:04;;;;;;;18.23;6.15;;;;;;;;;;5012706;28;20084;-77
2023/01/18 10:58:32;;;;;;;18.52;5.78;;;;;;;;;;5011598;28;20041;-72
2023/01/18 11:00:59;;;;;;;18.05;5.50;;;;;;;;;;5011901;28;20057;-72
2023/01/18 11:03:27;;;;;;;17.30;6.07;;;;;;;;;;5012764;28;20093;-72
2023/01/18 11:06:03;;;;;;;14.77;5.43;;;4.50;99.90;;;;;;5035299;28;20045;-72
2023/01/18 11:08:32;;;;;;;11.80;4.75;;;4.10;99.90;;;;;;5064621;28;20088;-72
2023/01/18 11:11:06;;;;;;;13.85;5.57;;;4.30;99.90;;;;;;5041871;28;20041;-72
2023/01/18 11:13:35;;;;;;;18.60;5.45;;;;;;;;;;5043067;28;20037;-72
2023/01/18 11:16:21;;;;;;;14.65;5.07;;;4.50;99.90;;;;;;5041862;28;20043;-72
2023/01/18 11:19:04;;;;;;;10.07;4.60;;;;;;;;;;5023381;28;20076;-72
2023/01/18 11:21:59;;;;;;;11.25;5.55;;;4.70;99.90;;;;;;5040163;28;20046;-72
2023/01/18 11:24:30;;;;;;;16.73;4.63;;;;;;;;;;5000903;28;20378;-72
2023/01/18 11:26:58;;;;;;;18.25;4.63;;;4.60;99.90;;;;;;5055507;28;20045;-72
2023/01/18 11:29:38;;;;;;;13.00;4.75;;;;;;;;;;5040764;28;20060;-72
2023/01/18 11:32:08;;;;;;;9.65;4.15;;;4.50;99.90;;;;;;5041203;28;20616;-72
2023/01/18 11:34:39;;;;;;;12.55;4.20;;;;;;;;;;5038124;28;20113;-72
2023/01/18 11:37:26;;;;;;;10.70;4.40;;;;;;;;;;5043451;28;20052;-72
2023/01/18 11:39:52;;;;;;;10.73;4.18;;;;;;;;;;5062443;28;20052;-72
2023/01/18 11:42:21;;;;;;;14.25;4.78;;;;;;;;;;5015035;28;20053;-73
2023/01/18 11:44:53;;;;;;;12.52;4.25;;;;;;;;;;5015699;28;20142;-74
2023/01/18 11:47:27;;;;;;;12.52;4.80;;;4.30;99.90;;;;;;5015575;28;20481;-75
2023/01/18 11:49:58;;;;;;;12.93;4.75;;;;;;;;;;5015108;28;20082;-74
2023/01/18 11:52:46;;;;;;;15.10;4.25;;;4.60;99.90;;;;;;5015552;28;20046;-74
2023/01/18 11:55:38;;;;;;;19.95;5.82;;;5.10;99.90;;;;;;5015367;28;20037;-75
2023/01/18 11:58:21;;;;;;;14.35;4.00;;;5.20;99.90;;;;;;5013211;28;20128;-74
2023/01/18 12:01:32;;;;;;;12.82;3.97;;;5.30;99.90;;;;;;5015224;28;20475;-74
2023/01/18 12:04:04;;;;;;;16.95;4.50;;;;;;;;;;4997053;28;20061;-77
2023/01/18 12:06:53;;;;;;;;;;;5.40;99.90;;;;;;5043503;28;20505;-77
2023/01/18 12:09:39;;;;;;;15.68;3.50;;;5.50;99.90;;;;;;5031816;28;19921;-77
2023/01/18 12:12:25;;;;;;;24.98;3.95;;;5.40;99.90;;;;;;5015309;28;20077;-77
2023/01/18 12:14:58;;;;;;;15.07;3.60;;;;;;;;;;5031787;28;20486;-77
2023/01/18 12:17:24;;;;;;;8.23;3.47;;;;;;;;;;5032210;28;20459;-77
2023/01/18 12:20:27;;;;;;;10.50;3.05;;;5.50;99.90;;;;;;5015285;28;20120;-78
2023/01/18 12:22:54;;;;;;;15.63;4.32;;;;;;;;;;5032482;28;20049;-78
2023/01/18 12:25:20;;;;;;;12.75;3.55;;;;;;;;;;5031838;28;20071;-78
2023/01/18 12:27:58;;;;;;;13.05;3.65;;;;;;;;;;5015463;28;20045;-77
2023/01/18 12:30:34;;;;;;;11.15;3.63;;;;;;;;;;5017330;28;20041;-79
2023/01/18 12:33:29;;;;;;;14.20;4.10;;;4.90;99.90;;;;;;5030606;28;20042;-77
2023/01/18 12:36:12;;;;;;;17.00;3.83;;;;;;;;;;5014778;28;20037;-77
2023/01/18 12:38:41;;;;;;;21.92;3.83;;;;;;;;;;5014137;28;20049;-77
2023/01/18 12:41:26;;;;;;;13.75;3.55;;;;;;;;;;5030503;28;20041;-77
2023/01/18 12:44:10;;;;;;;15.02;3.75;;;;;;;;;;5018785;28;20049;-77
2023/01/18 12:46:52;;;;;;;7.60;3.30;;;;;;;;;;5034829;28;20103;-77
2023/01/18 12:49:20;;;;;;;11.53;3.17;;;;;;;;;;5035667;28;20058;-77
2023/01/18 12:51:49;;;;;;;13.90;3.60;;;;;;;;;;5020379;28;20048;-76
2023/01/18 12:54:33;;;;;;;13.05;3.10;;;4.80;99.90;;;;;;5036453;28;20440;-76
2023/01/18 12:57:00;;;;;;;17.25;4.63;;;4.80;99.90;;;;;;5035567;28;20397;-76
2023/01/18 12:59:39;;;;;;;12.75;3.50;;;4.70;99.90;;;;;;5034161;28;21001;-77
2023/01/18 13:02:21;;;;;;;7.93;3.58;;;;;;;;;;5034298;28;20100;-77
2023/01/18 13:05:05;;;;;;;12.10;3.63;;;;;;;;;;5037380;28;20045;-76
2023/01/18 13:07:38;;;;;;;11.45;3.53;;;4.80;99.90;;;;;;5033361;28;20493;-77
2023/01/18 13:10:06;;;;;;;7.80;3.67;;;;;;;;;;5018066;28;20100;-76
2023/01/18 13:12:33;;;;;;;13.77;2.90;;;4.70;99.90;;;;;;5034425;28;20494;-77
2023/01/18 13:15:02;;;;;;;10.45;2.60;;;;;;;;;;5034557;28;20045;-77
2023/01/18 13:17:37;;;;;;;12.90;3.08;;;4.60;99.90;;;;;;5034792;28;20052;-77
2023/01/18 13:20:17;;;;;;;12.32;3.70;;;4.60;99.90;;;;;;5016995;28;20045;-77
2023/01/18 13:22:46;;;;;;;9.65;3.20;;;;;;;;;;5017959;28;20131;-77
2023/01/18 13:25:36;;;;;;;13.00;3.60;;;4.70;99.90;;;;;;5034383;28;20128;-77
2023/01/18 13:28:12;;;;;;;14.27;3.83;;;4.60;99.90;;;;;;5031537;28;20524;-73
2023/01/18 13:31:05;;;;;;;21.58;4.43;;;;;;;;;;5054052;28;20077;-72
2023/01/18 13:33:40;;;;;;;13.38;3.90;;;4.60;99.90;;;;;;5035747;28;20114;-76
2023/01/18 13:36:08;;;;;;;10.23;3.10;;;;;;;;;;5035216;28;20493;-72
2023/01/18 13:38:37;;;;;;;13.52;4.13;;;;;;;;;;5017321;28;20485;-73
2023/01/18 13:41:09;;;;;;;7.68;3.40;;;;;;;;;;5033994;28;20573;-73
2023/01/18 13:43:35;;;;;;;17.03;3.40;;;;;;;;;;5033921;28;20091;-73
2023/01/18 13:46:06;;;;;;;11.73;2.40;;;4.80;99.90;;;;;;5017146;28;20049;-73
2023/01/18 13:48:44;;;;;;;12.13;2.60;;;;;;;;;;5015812;28;20065;-73
2023/01/18 13:51:50;;;;;;;9.27;2.90;;;4.90;99.90;;;;;;5015556;28;20560;-73
2023/01/18 13:54:23;;;;;;;8.20;2.70;;;;;;;;;;5032446;28;20041;-73
2023/01/18 13:57:04;;;;;;;17.73;2.55;;;;;;;;;;5016273;28;20077;-73
2023/01/18 13:59:34;;;;;;;10.15;3.17;;;;;;;;;;5034057;28;20056;-73
2023/01/18 14:02:22;;;;;;;15.40;2.90;;;4.80;99.90;;;;;;5017335;28;20045;-72
2023/01/18 14:05:02;;;;;;;10.63;2.40;;;4.80;99.90;;;;;;5033830;28;20076;-72
2023/01/18 14:07:34;;;;;;;12.20;2.55;;;4.70;99.90;;;;;;5033855;28;20042;-73
2023/01/18 14:10:02;;;;;;;11.02;2.80;;;;;;;;;;5033434;28;20045;-72
2023/01/18 14:12:47;;;;;;;9.45;2.55;;;;;;;;;;5033543;28;20045;-73
2023/01/18 14:15:29;;;;;;;8.98;2.90;;;4.80;99.90;;;;;;5033507;28;20037;-73
2023/01/18 14:17:58;;;;;;;13.33;3.10;;;;;;;;;;5017358;28;20552;-73
2023/01/18 14:20:27;;;;;;;13.05;2.85;;;;;;;;;;5016872;28;20045;-72
2023/01/18 14:22:53;;;;;;;17.50;2.95;;;;;;;;;;5033088;28;20048;-72
2023/01/18 14:26:03;;;;;;;15.38;2.70;;;4.40;99.90;;;;;;5016605;28;20041;-73
2023/01/18 14:28:32;;;;;;;10.05;2.70;;;;;;;;;;4989090;28;20045;-72
2023/01/18 14:31:00;;;;;;;12.05;2.95;;;4.50;99.90;;;;;;5016580;28;20547;-72
2023/01/18 14:33:31;;;;;;;11.30;2.83;;;;;;;;;;5033312;28;20438;-71
2023/01/18 14:36:00;;;;;;;12.88;2.63;;;4.30;99.90;;;;;;5033017;28;20057;-71
2023/01/18 14:38:27;;;;;;;14.52;2.95;;;4.20;99.90;;;;;;5032951;28;20051;-71
2023/01/18 14:40:57;;;;;;;13.30;2.60;;;4.20;99.90;;;;;;5033289;28;20092;-71
2023/01/18 14:43:34;;;;;;;7.63;2.80;;;4.50;99.90;;;;;;5032932;28;20037;-71
2023/01/18 14:46:14;;;;;;;6.63;2.85;;;4.30;99.90;;;;;;5016495;28;20041;-72
2023/01/18 14:48:52;;;;;;;11.63;2.85;;;4.30;99.90;;;;;;5032843;28;20034;-71
2023/01/18 14:51:29;;;;;;;12.07;3.13;;;;;;;;;;5032660;28;20046;-72
2023/01/18 14:53:59;;;;;;;13.02;2.60;;;4.30;99.90;;;;;;5032551;28;20041;-72
2023/01/18 14:56:26;;;;;;;10.98;2.60;;;;;;;;;;5032814;28;20042;-72
2023/01/18 14:58:58;;;;;;;14.75;3.28;;;4.30;99.90;;;;;;5030790;28;20099;-71
2023/01/18 15:01:37;;;;;;;6.67;2.30;;;;;;;;;;5032854;28;20390;-72
2023/01/18 15:04:18;;;;;;;11.00;2.58;;;;;;;;;;5032118;28;20103;-71
2023/01/18 15:06:44;;;;;;;9.00;2.80;;;;;;;;;;5015696;28;20065;-71